Milford, MA (01757)

06:39 AM EST die 27o November, anno 2014 (GMT -0500)
Congress St | Change Station
CLOSE
Current Station
Personal Weather Stations
Location: Milford, MA
Elevation: 394 ft
Nearby Weather Stations

Elev 394 ft 42.15 °N, 71.53 °W | Updated 4 seconds ago

Aequaliter Nubila
Aequaliter Nubila
32.4 °F
Feels Like 32 °F
N
0.0
Ventus Variabilis Ventus from Magis Aquilo quam Eurus
Gusts 0.0 mph

Hodie
High -- | Low -- °F
--% Chance of Precip.
Yesterday
High -- | Low -- °F
Precip. -- in
6:50 AM 4:16 PM
Waxing Crescent, 28% visible
Pressio 29.82 in
Visibilitas 10.0 milia passuum
Clouds Serena
Frigus Venti 32 °F
Frigus in quo Ros apparet 28 °F
Umor 85%
Rainfall 0.56 in
Snow Depth Not available.
UV 0.0 out of 12
Pollen .10 out of 12
Air Quality Not available.
Flu Activity Not available.
METAR KSFZ 271135Z 31006KT 10SM CLR M01/M04 A2982 RMK AO1 P0001

More Conditions Fewer Conditions

Pressio 29.82 in
Visibilitas 10.0 milia passuum
Clouds Serena
Frigus Venti 32 °F
Frigus in quo Ros apparet 28 °F
Umor 85%
Rainfall 0.56 in
Snow Depth Not available.
UV 0.0 out of 12
Pollen .10 out of 12
Air Quality Not available.
Flu Activity Not available.
METAR KSFZ 271135Z 31006KT 10SM CLR M01/M04 A2982 RMK AO1 P0001

More Conditions Fewer Conditions

10-Day Weather Forecast

Almanac

Astronomy

Nov. 27, 2014 Rise Set
Actual Time
Civil Twilight
Nautical Twilight
Astronomical Twilight
Moon
Length Of Visible Light
Length of Day
Tomorrow will be .
, % of the Moon is Illuminated

Today's Extremes

State Highs State Lows

Community

WunderPhotos

Upload Photos

1,773,970 photos uploaded!

WunderBlogs® & News

Nearby

Air Quality

  Air Quality AQ Index Pollutant
Not available.

Snow Depth

Station Depth Elevation

Earthquake Activity

City Distance Mag. Time & Date
Minimum magnitude displayed is 2.5.

Coastal Water Temperatures

Locus Calor

Nearby Weather Stations